createdAt,value
2019-04-30T00:00:30.420Z,1.03
2019-04-30T00:03:11.383Z,0.83
2019-04-30T00:05:41.446Z,0.93
2019-04-30T00:08:15.901Z,1.00
2019-04-30T00:10:48.279Z,0.70
2019-04-30T00:13:21.207Z,0.70
2019-04-30T00:15:58.753Z,0.70
2019-04-30T00:18:30.778Z,1.00
2019-04-30T00:21:02.596Z,0.80
2019-04-30T00:23:35.968Z,0.80
2019-04-30T00:26:10.513Z,0.80
2019-04-30T00:28:47.689Z,0.70
2019-04-30T00:31:23.591Z,1.10
2019-04-30T00:33:57.843Z,0.90
2019-04-30T00:36:34.181Z,0.77
2019-04-30T00:39:07.199Z,1.00
2019-04-30T00:41:39.845Z,0.90
2019-04-30T00:44:12.129Z,0.90
2019-04-30T00:46:45.483Z,0.90
2019-04-30T00:49:23.370Z,0.83
2019-04-30T00:51:54.715Z,0.70
2019-04-30T00:54:30.640Z,0.73
2019-04-30T00:57:04.511Z,0.90
2019-04-30T00:59:39.514Z,0.73
2019-04-30T01:02:29.196Z,0.90
2019-04-30T01:05:05.059Z,1.00
2019-04-30T01:07:32.919Z,0.90
2019-04-30T01:10:07.260Z,1.03
2019-04-30T01:12:46.849Z,0.80
2019-04-30T01:15:14.738Z,0.80
2019-04-30T01:17:50.977Z,1.00
2019-04-30T01:20:24.066Z,1.20
2019-04-30T01:22:58.578Z,1.07
2019-04-30T01:25:31.696Z,1.47
2019-04-30T01:28:04.888Z,1.23
2019-04-30T01:30:39.466Z,1.80
2019-04-30T01:33:13.688Z,1.50
2019-04-30T01:35:48.669Z,1.60
2019-04-30T01:38:20.972Z,1.93
2019-04-30T01:40:53.964Z,1.40
2019-04-30T01:43:31.566Z,1.70
2019-04-30T01:46:08.451Z,1.90
2019-04-30T01:48:35.817Z,1.57
2019-04-30T01:51:09.084Z,2.00
2019-04-30T01:53:43.665Z,1.10
2019-04-30T01:56:20.844Z,1.73
2019-04-30T01:59:04.350Z,1.40
2019-04-30T02:01:39.305Z,1.53
2019-04-30T02:04:12.246Z,1.77
2019-04-30T02:06:45.566Z,1.80
2019-04-30T02:09:18.876Z,2.57
2019-04-30T02:11:54.738Z,1.77
2019-04-30T02:14:28.726Z,2.87
2019-04-30T02:17:02.140Z,1.83
2019-04-30T02:19:35.078Z,2.10
2019-04-30T02:22:09.505Z,2.10
2019-04-30T02:24:42.505Z,2.17
2019-04-30T02:27:15.677Z,3.20
2019-04-30T02:29:49.496Z,2.70
2019-04-30T02:32:23.209Z,2.20
2019-04-30T02:35:15.737Z,2.03
2019-04-30T02:38:06.417Z,1.73
2019-04-30T02:40:42.647Z,2.33
2019-04-30T02:43:15.591Z,1.70
2019-04-30T02:45:50.526Z,1.43
2019-04-30T02:48:25.117Z,1.80
2019-04-30T02:51:00.567Z,1.47
2019-04-30T02:53:55.222Z,2.47
2019-04-30T02:56:30.042Z,1.43
2019-04-30T02:59:03.802Z,1.80
2019-04-30T03:01:40.257Z,1.87
2019-04-30T03:04:12.376Z,1.30
2019-04-30T03:06:46.098Z,1.87
2019-04-30T03:09:20.133Z,1.40
2019-04-30T03:11:54.668Z,1.53
2019-04-30T03:14:29.976Z,1.07
2019-04-30T03:17:03.422Z,1.50
2019-04-30T03:19:40.108Z,1.20
2019-04-30T03:22:13.755Z,1.70
2019-04-30T03:24:50.077Z,2.13
2019-04-30T03:27:24.941Z,1.40
2019-04-30T03:29:59.986Z,1.47
2019-04-30T03:32:36.979Z,2.80
2019-04-30T03:35:12.731Z,1.77
2019-04-30T03:37:44.021Z,1.97
2019-04-30T03:40:17.045Z,1.60
2019-04-30T03:42:50.307Z,1.60
2019-04-30T03:45:23.441Z,2.00
2019-04-30T03:47:56.588Z,2.30
2019-04-30T03:50:41.499Z,2.00
2019-04-30T03:53:04.015Z,2.03
2019-04-30T03:55:37.005Z,1.60
2019-04-30T03:58:10.045Z,1.60
2019-04-30T04:00:46.575Z,1.73
2019-04-30T04:03:20.120Z,1.77
2019-04-30T04:05:59.418Z,1.90
2019-04-30T04:08:33.109Z,2.23
2019-04-30T04:11:10.004Z,2.03
2019-04-30T04:13:41.715Z,1.83
2019-04-30T04:16:14.798Z,1.87
2019-04-30T04:18:50.067Z,2.30
2019-04-30T04:21:22.127Z,1.43
2019-04-30T04:23:55.456Z,2.53
2019-04-30T04:26:29.838Z,2.07
2019-04-30T04:29:02.756Z,2.57
2019-04-30T04:31:39.439Z,1.93
2019-04-30T04:34:11.506Z,1.73
2019-04-30T04:36:44.424Z,2.40
2019-04-30T04:39:20.023Z,2.23
2019-04-30T04:41:51.710Z,2.50
2019-04-30T04:44:24.995Z,2.03
2019-04-30T04:47:00.028Z,1.93
2019-04-30T04:49:33.429Z,1.73
2019-04-30T04:52:06.572Z,2.27
2019-04-30T04:54:40.659Z,2.80
2019-04-30T04:57:17.970Z,2.50
2019-04-30T04:59:49.982Z,2.30
2019-04-30T05:02:32.635Z,1.80
2019-04-30T05:05:10.045Z,2.63
2019-04-30T05:07:43.094Z,2.10
2019-04-30T05:10:19.080Z,2.30
2019-04-30T05:12:51.204Z,2.80
2019-04-30T05:15:25.026Z,2.80
2019-04-30T05:17:59.229Z,3.30
2019-04-30T05:20:32.321Z,3.37
2019-04-30T05:23:05.358Z,3.00
2019-04-30T05:25:39.019Z,2.03
2019-04-30T05:28:12.172Z,2.50
2019-04-30T05:30:45.094Z,2.53
2019-04-30T05:33:19.461Z,4.47
2019-04-30T05:35:52.487Z,3.30
2019-04-30T05:38:25.554Z,3.27
2019-04-30T05:40:59.546Z,3.00
2019-04-30T05:43:32.619Z,3.23
2019-04-30T05:46:10.837Z,2.17
2019-04-30T05:48:42.880Z,3.40
2019-04-30T05:51:18.614Z,2.70
2019-04-30T05:53:50.419Z,3.67
2019-04-30T05:56:23.531Z,3.00
2019-04-30T05:58:56.577Z,3.17
2019-04-30T06:01:29.700Z,2.97
2019-04-30T06:04:03.055Z,4.63
2019-04-30T06:06:35.945Z,2.60
2019-04-30T06:09:14.695Z,3.80
2019-04-30T06:11:51.299Z,3.40
2019-04-30T06:14:26.323Z,3.10
2019-04-30T06:17:06.384Z,3.57
2019-04-30T06:19:39.831Z,3.33
2019-04-30T06:22:12.629Z,3.43
2019-04-30T06:24:45.857Z,3.07
2019-04-30T06:27:19.140Z,3.77
2019-04-30T06:29:52.760Z,3.10
2019-04-30T06:32:25.652Z,3.40
2019-04-30T06:35:02.293Z,2.50
2019-04-30T06:37:33.963Z,2.50
2019-04-30T06:40:11.440Z,2.90
2019-04-30T06:42:42.155Z,3.50
2019-04-30T06:45:16.478Z,2.20
2019-04-30T06:47:50.858Z,2.60
2019-04-30T06:50:24.084Z,2.30
2019-04-30T06:53:00.984Z,3.00
2019-04-30T06:55:31.595Z,3.07
2019-04-30T06:58:14.245Z,3.30
2019-04-30T07:00:46.172Z,3.73
2019-04-30T07:03:22.855Z,4.37
2019-04-30T07:05:58.627Z,3.80
2019-04-30T07:08:42.767Z,3.27
2019-04-30T07:11:30.720Z,3.40
2019-04-30T07:14:03.803Z,3.67
2019-04-30T07:16:36.964Z,3.30
2019-04-30T07:19:10.146Z,3.87
2019-04-30T07:21:45.238Z,3.80
2019-04-30T07:24:20.785Z,3.90
2019-04-30T07:26:54.710Z,5.07
2019-04-30T07:29:25.989Z,5.50
2019-04-30T07:31:59.234Z,5.27
2019-04-30T07:34:36.897Z,4.80
2019-04-30T07:39:41.709Z,6.10
2019-04-30T07:42:14.651Z,5.17
2019-04-30T07:44:50.021Z,5.53
2019-04-30T07:47:22.157Z,4.90
2019-04-30T07:49:55.979Z,6.03
2019-04-30T07:52:33.388Z,5.40
2019-04-30T07:55:03.443Z,5.10
2019-04-30T07:57:36.416Z,5.47
2019-04-30T08:00:11.133Z,5.33
2019-04-30T08:02:50.471Z,5.73
2019-04-30T08:05:24.258Z,6.47
2019-04-30T08:08:15.856Z,5.57
2019-04-30T08:09:38.407Z,4.90
2019-04-30T08:10:32.295Z,5.40
2019-04-30T08:13:10.324Z,5.33
2019-04-30T08:15:42.145Z,4.70
2019-04-30T08:18:14.231Z,5.67
2019-04-30T08:20:49.031Z,4.77
2019-04-30T08:23:34.001Z,5.00
2019-04-30T08:25:58.750Z,6.70
2019-04-30T08:28:31.630Z,6.73
2019-04-30T08:31:04.896Z,5.43
2019-04-30T08:33:39.992Z,4.60
2019-04-30T08:36:12.489Z,6.03
2019-04-30T08:38:46.019Z,5.07
2019-04-30T08:41:19.313Z,4.60
2019-04-30T08:43:53.608Z,3.80
2019-04-30T08:46:28.510Z,3.87
2019-04-30T08:49:01.063Z,3.70
2019-04-30T08:51:34.370Z,4.27
2019-04-30T08:54:09.474Z,4.33
2019-04-30T08:56:41.615Z,3.43
2019-04-30T08:59:14.711Z,4.53
2019-04-30T09:01:48.656Z,4.20
2019-04-30T09:04:21.915Z,4.10
2019-04-30T09:06:54.786Z,3.70
2019-04-30T09:09:29.560Z,4.50
2019-04-30T09:12:03.113Z,4.80
2019-04-30T09:14:36.616Z,4.43
2019-04-30T09:17:09.435Z,3.97
2019-04-30T09:19:43.064Z,4.50
2019-04-30T09:22:19.299Z,5.33
2019-04-30T09:24:53.168Z,6.30
2019-04-30T09:27:26.424Z,4.50
2019-04-30T09:29:59.507Z,6.07
2019-04-30T09:32:32.784Z,4.77
2019-04-30T09:35:05.735Z,5.50
2019-04-30T09:37:41.778Z,5.60
2019-04-30T09:40:18.620Z,5.47
2019-04-30T09:42:49.554Z,4.53
2019-04-30T09:45:22.694Z,4.03
2019-04-30T09:47:56.616Z,4.40
2019-04-30T09:50:29.543Z,4.70
2019-04-30T09:53:03.239Z,4.60
2019-04-30T09:55:36.166Z,4.33
2019-04-30T09:58:17.141Z,3.67
2019-04-30T10:00:44.209Z,4.20
2019-04-30T10:03:20.172Z,3.83
2019-04-30T10:05:54.368Z,4.90
2019-04-30T10:08:30.125Z,4.60
2019-04-30T10:11:19.400Z,4.17
2019-04-30T10:13:52.718Z,3.50
2019-04-30T10:16:36.319Z,3.17
2019-04-30T10:19:10.277Z,3.73
2019-04-30T10:21:43.700Z,3.63
2019-04-30T10:24:16.836Z,3.20
2019-04-30T10:26:50.060Z,3.50
2019-04-30T10:29:24.239Z,3.40
2019-04-30T10:31:58.674Z,3.30
2019-04-30T10:34:31.479Z,3.30
2019-04-30T10:37:04.750Z,4.37
2019-04-30T10:39:39.163Z,3.70
2019-04-30T10:42:12.241Z,3.30
2019-04-30T10:44:46.353Z,3.70
2019-04-30T10:47:19.378Z,3.50
2019-04-30T10:49:52.870Z,3.33
2019-04-30T10:52:25.931Z,4.57
2019-04-30T10:54:59.570Z,3.90
2019-04-30T10:57:32.596Z,3.50
2019-04-30T11:00:07.744Z,4.67
2019-04-30T11:02:40.159Z,3.73
2019-04-30T11:05:13.540Z,3.67
2019-04-30T11:07:46.694Z,3.30
2019-04-30T11:10:20.259Z,3.40
2019-04-30T11:12:53.181Z,2.73
2019-04-30T11:15:26.335Z,3.43
2019-04-30T11:17:59.987Z,2.90
2019-04-30T11:20:33.555Z,3.20
2019-04-30T11:23:14.105Z,2.90
2019-04-30T11:25:42.001Z,3.80
2019-04-30T11:28:15.586Z,3.27
2019-04-30T11:30:50.291Z,3.37
2019-04-30T11:33:23.431Z,3.10
2019-04-30T11:36:03.037Z,3.40
2019-04-30T11:38:32.184Z,3.00
2019-04-30T11:41:06.054Z,2.90
2019-04-30T11:43:39.416Z,3.20
2019-04-30T11:46:29.587Z,2.83
2019-04-30T11:49:02.657Z,2.83
2019-04-30T11:51:35.647Z,2.40
2019-04-30T11:54:09.034Z,2.77
2019-04-30T11:56:41.805Z,3.20
2019-04-30T11:59:15.287Z,3.03
2019-04-30T12:01:52.957Z,3.10
2019-04-30T12:04:26.122Z,2.77
2019-04-30T12:07:00.259Z,3.10
2019-04-30T12:09:38.613Z,3.53
2019-04-30T12:12:11.916Z,3.30
2019-04-30T12:14:44.797Z,4.63
2019-04-30T12:17:17.721Z,3.40
2019-04-30T12:19:51.830Z,2.83
2019-04-30T12:22:25.132Z,2.83
2019-04-30T12:25:03.274Z,3.10
2019-04-30T12:27:33.849Z,2.80
2019-04-30T12:30:08.005Z,3.27
2019-04-30T12:32:41.128Z,2.87
2019-04-30T12:35:14.329Z,2.60
2019-04-30T12:37:50.832Z,3.30
2019-04-30T12:40:29.048Z,2.40
2019-04-30T12:42:59.780Z,2.70
2019-04-30T12:45:32.375Z,2.93
2019-04-30T12:48:06.552Z,4.27
2019-04-30T12:50:41.210Z,3.00
2019-04-30T12:53:24.572Z,2.60
2019-04-30T12:56:00.307Z,3.30
2019-04-30T12:58:33.281Z,2.27
2019-04-30T13:01:06.627Z,2.50
2019-04-30T13:03:40.080Z,2.63
2019-04-30T13:06:13.377Z,2.57
2019-04-30T13:08:49.348Z,2.37
2019-04-30T13:11:22.006Z,1.97
2019-04-30T13:13:57.094Z,2.30
2019-04-30T13:16:30.884Z,2.07
2019-04-30T13:19:03.890Z,1.80
2019-04-30T13:21:37.089Z,2.40
2019-04-30T13:24:10.232Z,2.50
2019-04-30T13:26:43.596Z,2.10
2019-04-30T13:29:18.053Z,2.43
2019-04-30T13:31:51.663Z,2.03
2019-04-30T13:34:43.741Z,2.40
2019-04-30T13:37:19.089Z,2.00
2019-04-30T13:40:07.956Z,2.30
2019-04-30T13:42:57.725Z,2.37
2019-04-30T13:45:30.666Z,2.57
2019-04-30T13:48:03.792Z,2.27
2019-04-30T13:50:36.722Z,2.20
2019-04-30T13:53:10.086Z,1.83
2019-04-30T13:55:45.955Z,1.80
2019-04-30T13:58:18.515Z,2.10
2019-04-30T14:00:51.801Z,2.10
2019-04-30T14:03:35.038Z,1.80
2019-04-30T14:06:09.133Z,2.00
2019-04-30T14:08:43.511Z,2.67
2019-04-30T14:11:16.353Z,2.13
2019-04-30T14:13:49.741Z,1.83
2019-04-30T14:16:22.960Z,2.57
2019-04-30T14:18:56.121Z,1.70
2019-04-30T14:21:34.679Z,1.83
2019-04-30T14:24:03.479Z,2.73
2019-04-30T14:26:39.129Z,1.90
2019-04-30T14:29:11.725Z,2.63
2019-04-30T14:31:45.510Z,2.60
2019-04-30T14:34:18.594Z,1.73
2019-04-30T14:36:51.714Z,2.00
2019-04-30T14:39:24.797Z,2.00
2019-04-30T14:41:59.997Z,1.97
2019-04-30T14:44:34.492Z,2.13
2019-04-30T14:47:20.282Z,2.13
2019-04-30T14:50:02.697Z,2.23
2019-04-30T14:52:33.470Z,2.20
2019-04-30T14:55:10.708Z,2.70
2019-04-30T14:57:54.658Z,2.10
2019-04-30T15:00:42.071Z,2.50
2019-04-30T15:03:16.184Z,2.30
2019-04-30T15:05:51.577Z,2.00
2019-04-30T15:08:23.801Z,2.07
2019-04-30T15:10:56.865Z,1.80
2019-04-30T15:13:29.947Z,2.40
2019-04-30T15:16:03.155Z,1.80
2019-04-30T15:18:36.002Z,1.63
2019-04-30T15:21:09.681Z,2.53
2019-04-30T15:24:01.711Z,2.43
2019-04-30T15:26:34.300Z,2.80
2019-04-30T15:29:10.224Z,2.83
2019-04-30T15:31:42.662Z,2.80
2019-04-30T15:34:16.340Z,2.33
2019-04-30T15:36:49.760Z,2.80
2019-04-30T15:39:31.808Z,3.03
2019-04-30T15:42:05.183Z,2.03
2019-04-30T15:44:45.198Z,2.10
2019-04-30T15:47:12.669Z,2.20
2019-04-30T15:49:45.840Z,2.37
2019-04-30T15:52:19.179Z,1.67
2019-04-30T15:54:52.022Z,1.90
2019-04-30T15:57:25.186Z,2.40
2019-04-30T15:59:57.991Z,2.23
2019-04-30T16:02:32.287Z,2.47
2019-04-30T16:05:21.687Z,2.17
2019-04-30T16:08:02.085Z,2.17
2019-04-30T16:10:45.315Z,2.47
2019-04-30T16:13:19.604Z,2.23
2019-04-30T16:15:52.592Z,1.80
2019-04-30T16:18:28.817Z,2.70
2019-04-30T16:21:01.603Z,2.60
2019-04-30T16:23:34.589Z,3.10
2019-04-30T16:26:07.826Z,1.93
2019-04-30T16:28:40.902Z,2.27
2019-04-30T16:31:14.061Z,1.93
2019-04-30T16:33:48.683Z,1.90
2019-04-30T16:36:22.135Z,1.63
2019-04-30T16:38:54.850Z,2.40
2019-04-30T16:41:31.541Z,2.03
2019-04-30T16:44:02.847Z,2.30
2019-04-30T16:46:36.005Z,1.87
2019-04-30T16:49:10.166Z,1.90
2019-04-30T16:51:43.483Z,1.83
2019-04-30T16:54:18.570Z,2.00
2019-04-30T16:57:03.105Z,2.13
2019-04-30T16:59:30.569Z,1.60
2019-04-30T17:02:04.741Z,1.90
2019-04-30T17:04:55.191Z,1.63
2019-04-30T17:07:30.023Z,1.50
2019-04-30T17:10:09.064Z,1.70
2019-04-30T17:12:59.302Z,2.03
2019-04-30T17:15:33.969Z,1.97
2019-04-30T17:18:09.840Z,1.43
2019-04-30T17:20:42.276Z,1.70
2019-04-30T17:23:15.190Z,2.13
2019-04-30T17:25:49.356Z,1.70
2019-04-30T17:28:22.340Z,1.73
2019-04-30T17:30:55.678Z,1.80
2019-04-30T17:33:28.520Z,1.60
2019-04-30T17:36:01.586Z,1.47
2019-04-30T17:38:34.875Z,1.50
2019-04-30T17:41:07.885Z,1.70
2019-04-30T17:43:42.227Z,1.90
2019-04-30T17:46:15.516Z,2.60
2019-04-30T17:48:49.537Z,1.73
2019-04-30T17:51:23.038Z,1.73
2019-04-30T17:54:13.492Z,1.50
2019-04-30T17:56:47.660Z,1.30
2019-04-30T17:59:20.708Z,1.40
2019-04-30T18:01:54.891Z,1.50
2019-04-30T18:04:29.550Z,1.47
2019-04-30T18:07:02.138Z,2.03
2019-04-30T18:09:35.269Z,1.70
2019-04-30T18:12:09.384Z,2.20
2019-04-30T18:14:42.302Z,3.13
2019-04-30T18:17:15.217Z,1.90
2019-04-30T18:19:52.416Z,2.40
2019-04-30T18:22:26.628Z,1.70
2019-04-30T18:25:10.640Z,1.40
2019-04-30T18:27:46.265Z,1.80
2019-04-30T18:30:21.197Z,2.00
2019-04-30T18:32:54.725Z,1.50
2019-04-30T18:35:28.617Z,1.90
2019-04-30T18:38:02.138Z,2.10
2019-04-30T18:40:35.797Z,1.60
2019-04-30T18:43:08.933Z,4.10
2019-04-30T18:45:42.419Z,1.63
2019-04-30T18:48:15.200Z,2.33
2019-04-30T18:50:48.234Z,1.97
2019-04-30T18:53:24.299Z,1.77
2019-04-30T18:55:59.043Z,2.77
2019-04-30T18:58:39.915Z,2.50
2019-04-30T19:01:06.333Z,2.17
2019-04-30T19:03:39.421Z,2.50
2019-04-30T19:06:22.921Z,2.37
2019-04-30T19:08:55.265Z,2.37
2019-04-30T19:11:30.392Z,2.07
2019-04-30T19:14:09.412Z,2.50
2019-04-30T19:16:59.702Z,2.80
2019-04-30T19:19:52.069Z,3.50
2019-04-30T19:22:25.159Z,2.20
2019-04-30T19:25:00.770Z,2.20
2019-04-30T19:27:32.488Z,2.27
2019-04-30T19:30:05.566Z,2.77
2019-04-30T19:32:42.288Z,2.73
2019-04-30T19:35:15.274Z,3.20
2019-04-30T19:37:48.697Z,2.60
2019-04-30T19:40:21.812Z,2.40
2019-04-30T19:42:54.867Z,2.43
2019-04-30T19:45:27.777Z,2.80
2019-04-30T19:48:01.646Z,2.57
2019-04-30T19:50:34.711Z,2.77
2019-04-30T19:53:08.783Z,2.93
2019-04-30T19:55:41.758Z,2.67
2019-04-30T19:58:27.758Z,2.93
2019-04-30T20:00:49.901Z,3.70
2019-04-30T20:03:23.328Z,3.00
2019-04-30T20:05:58.502Z,2.90
2019-04-30T20:08:30.794Z,2.80
2019-04-30T20:11:03.889Z,2.50
2019-04-30T20:13:37.540Z,2.00
2019-04-30T20:16:10.458Z,2.73
2019-04-30T20:18:43.563Z,3.73
2019-04-30T20:21:28.364Z,2.00
2019-04-30T20:23:56.918Z,2.27
2019-04-30T20:26:29.958Z,2.30
2019-04-30T20:29:02.912Z,2.40
2019-04-30T20:31:36.379Z,3.43
2019-04-30T20:34:09.327Z,2.17
2019-04-30T20:36:42.847Z,2.30
2019-04-30T20:39:22.630Z,1.77
2019-04-30T20:41:56.267Z,2.60
2019-04-30T20:44:29.221Z,2.07
2019-04-30T20:47:02.427Z,2.60
2019-04-30T20:49:35.402Z,2.20
2019-04-30T20:52:08.570Z,2.50
2019-04-30T20:54:41.543Z,2.60
2019-04-30T20:57:14.539Z,1.87
2019-04-30T20:59:48.753Z,2.53
2019-04-30T21:02:21.985Z,2.27
2019-04-30T21:04:55.029Z,2.63
2019-04-30T21:07:28.172Z,3.63
2019-04-30T21:10:01.144Z,3.10
2019-04-30T21:12:36.816Z,2.77
2019-04-30T21:15:10.825Z,2.00
2019-04-30T21:17:43.915Z,2.67
2019-04-30T21:20:19.366Z,2.40
2019-04-30T21:22:52.184Z,3.13
2019-04-30T21:25:25.216Z,2.50
2019-04-30T21:27:59.964Z,2.70
2019-04-30T21:30:33.438Z,2.57
2019-04-30T21:33:09.338Z,2.03
2019-04-30T21:35:46.298Z,1.90
2019-04-30T21:38:19.760Z,2.60
2019-04-30T21:40:52.945Z,2.30
2019-04-30T21:43:29.560Z,2.43
2019-04-30T21:46:02.753Z,1.73
2019-04-30T21:48:35.694Z,2.23
2019-04-30T21:51:09.445Z,2.33
2019-04-30T21:53:42.802Z,2.10
2019-04-30T21:56:16.903Z,2.40
2019-04-30T21:58:49.768Z,2.30
2019-04-30T22:01:24.511Z,2.47
2019-04-30T22:03:57.375Z,1.93
2019-04-30T22:06:31.207Z,2.20
2019-04-30T22:09:04.187Z,3.00
2019-04-30T22:11:39.332Z,1.87
2019-04-30T22:14:11.699Z,2.23
2019-04-30T22:16:45.516Z,2.10
2019-04-30T22:19:18.330Z,2.00
2019-04-30T22:21:51.397Z,1.87
2019-04-30T22:24:24.362Z,2.70
2019-04-30T22:26:57.539Z,2.57
2019-04-30T22:29:38.774Z,2.30
2019-04-30T22:32:04.640Z,2.20
2019-04-30T22:34:37.838Z,1.87
2019-04-30T22:37:10.792Z,2.17
2019-04-30T22:39:49.477Z,1.73
2019-04-30T22:42:36.003Z,1.60
2019-04-30T22:45:11.603Z,1.63
2019-04-30T22:47:44.816Z,1.70
2019-04-30T22:50:19.154Z,1.53
2019-04-30T22:52:53.233Z,1.50
2019-04-30T22:55:27.392Z,2.00
2019-04-30T22:58:00.424Z,1.40
2019-04-30T23:00:40.738Z,1.63
2019-04-30T23:03:14.710Z,2.40
2019-04-30T23:05:47.644Z,1.50
2019-04-30T23:08:20.532Z,1.80
2019-04-30T23:10:54.111Z,1.30
2019-04-30T23:13:27.028Z,1.23
2019-04-30T23:16:00.443Z,1.40
2019-04-30T23:18:33.420Z,1.43
2019-04-30T23:21:06.484Z,1.80
2019-04-30T23:23:39.583Z,1.53
2019-04-30T23:26:12.767Z,1.83
2019-04-30T23:28:45.675Z,1.40
2019-04-30T23:31:18.873Z,1.67
2019-04-30T23:33:52.724Z,1.30
2019-04-30T23:36:26.054Z,2.40
2019-04-30T23:38:58.854Z,0.93
2019-04-30T23:41:32.001Z,1.07
2019-04-30T23:44:06.196Z,1.07
2019-04-30T23:46:39.557Z,1.27
2019-04-30T23:49:12.809Z,1.03
2019-04-30T23:51:46.880Z,1.10
2019-04-30T23:54:19.826Z,1.13
2019-04-30T23:56:53.673Z,1.10
2019-04-30T23:59:26.729Z,1.73
